Airfield :







YOU CAN JOIN US ON...

 
LOGIN :

Register | Disclaimer

   EN    FR    IT 

 









Legend :    VFR   Marginal VFR   IFR   Intensive IFR   Very Intensive IFR
Visi :
Ceiling :
>= 8 km
>= 3000ft
5 to 8 km
1000 to 3000 ft
1500m to 5 km
500 to 1000 ft
800 to 1500m
200 to 500 ft
< 800m
< 200 ft
Symbols :   Thunderstorms  Fog  Heavy snow  Heavy precipitations  Wind > 20 kt






- Airport Elevation : 23 ft
- IATA code : STT


TIST - King

CURRENT METAR :
  • 270153Z AUTO 07009G17KT 10SM CLR 24/18 A3005 RMK AO2 SLP175 T02440183

EXPIRED METARs :
  • 270053Z 06014KT 10SM SCT075 25/19 A3004 RMK AO2 SLP172 T02500189
  • 262353Z 06018G22KT 10SM CLR 25/19 A3002 RMK AO2 SLP167 T02500189 10283 20250 53007

TAF TIST
Valid from the 27 at 00:00 until the 28 at 00:00 UTC


262337Z 2700/2724 05014G21KT P6SM VCSH FEW035 SCT060
FM270400 05006KT P6SM FEW035
FM271500 10010KT P6SM FEW030
FM272100 07007KT P6SM FEW030



MET'MAP, your aeronautical weather chart ! - Copyright ORBIFLY December 2007 - Disclaimer

ORBIFLY MET'MAP TEAM :

Programming & Development : Alexandra Zaïnal
Concept & original design : Baudouin d'Aumeries
Assistance for programming : Marc-Olivier Méhu
Technical & hardware support : Manuel Goepfert

Contact : metmap@orbifly.com




SOURCES & CREDITS :

   NOAA